Terminal Aerodrome Forecast
Issued by NWS

Home | Current Version | Previous Version | Text Only | Print | Product List | Glossary On
Versions: 1 2 3 4 5 6 7 8 9 10 11 12 13
000
FTUS45 KABQ 260520
TAFFMN
TAF
KFMN 260520Z 2606/2706 29008KT P6SM VCSH SCT025 BKN050
      TEMPO 2606/2608 -SHRA BKN030
     FM260900 31008KT P6SM SCT025 BKN050
      TEMPO 2609/2612 BKN025
     FM261700 28013G22KT P6SM SCT060
     FM270200 VRB05KT P6SM SKC=

USA.gov is the U.S. government's official web portal to all federal, state and local government web resources and services.